createdAt,value
2022-10-09T00:01:15.987Z,12.90
2022-10-09T00:06:24.103Z,12.73
2022-10-09T00:11:29.225Z,10.23
2022-10-09T00:16:32.333Z,11.40
2022-10-09T00:21:35.218Z,9.55
2022-10-09T00:26:38.207Z,8.53
2022-10-09T00:31:40.908Z,8.23
2022-10-09T00:36:43.602Z,8.50
2022-10-09T00:41:46.357Z,7.53
2022-10-09T00:46:52.682Z,5.00
2022-10-09T00:51:57.815Z,6.30
2022-10-09T00:57:00.749Z,5.47
2022-10-09T01:02:03.427Z,4.27
2022-10-09T01:07:09.108Z,2.88
2022-10-09T01:12:15.469Z,2.63
2022-10-09T01:17:37.692Z,2.23
2022-10-09T01:23:18.000Z,2.00
2022-10-09T01:28:23.885Z,2.03
2022-10-09T01:33:28.787Z,1.85
2022-10-09T01:38:32.407Z,2.20
2022-10-09T01:43:35.573Z,2.37
2022-10-09T01:48:38.573Z,2.42
2022-10-09T01:53:41.887Z,2.27
2022-10-09T01:58:54.628Z,2.47
2022-10-09T02:03:59.932Z,2.78
2022-10-09T02:09:04.477Z,3.13
2022-10-09T02:14:07.295Z,3.85
2022-10-09T02:19:29.538Z,3.40
2022-10-09T02:24:33.237Z,2.67
2022-10-09T02:29:38.173Z,2.78
2022-10-09T02:34:41.273Z,3.00
2022-10-09T02:39:44.049Z,3.08
2022-10-09T02:44:46.670Z,2.80
2022-10-09T02:49:49.307Z,2.65
2022-10-09T02:54:51.866Z,2.40
2022-10-09T02:59:54.504Z,2.40
2022-10-09T03:04:57.141Z,2.80
2022-10-09T03:09:59.775Z,3.00
2022-10-09T03:15:02.612Z,2.80
2022-10-09T03:20:05.759Z,3.25
2022-10-09T03:25:08.875Z,2.90
2022-10-09T03:30:11.928Z,2.63
2022-10-09T03:35:14.594Z,2.87
2022-10-09T03:40:17.395Z,3.38
2022-10-09T03:45:20.114Z,2.92
2022-10-09T03:50:22.817Z,2.90
2022-10-09T03:55:25.556Z,3.58
2022-10-09T04:00:28.379Z,2.83
2022-10-09T04:05:34.948Z,2.70
2022-10-09T04:10:37.708Z,2.58
2022-10-09T04:15:40.757Z,2.93
2022-10-09T04:20:55.084Z,2.53
2022-10-09T04:25:59.792Z,2.80
2022-10-09T04:31:02.561Z,2.83
2022-10-09T04:36:05.637Z,2.83
2022-10-09T04:41:08.612Z,3.07
2022-10-09T04:46:13.764Z,2.78
2022-10-09T04:51:18.004Z,3.37
2022-10-09T04:56:21.254Z,3.53
2022-10-09T05:01:26.324Z,2.78
2022-10-09T05:06:29.013Z,3.10
2022-10-09T05:11:31.675Z,2.97
2022-10-09T05:16:49.357Z,3.97
2022-10-09T05:21:57.123Z,4.07
2022-10-09T05:26:59.771Z,4.18
2022-10-09T05:32:02.524Z,4.23
2022-10-09T05:37:05.444Z,4.57
2022-10-09T05:42:08.229Z,5.03
2022-10-09T05:47:11.010Z,4.28
2022-10-09T05:52:13.873Z,4.72
2022-10-09T05:57:16.709Z,4.30
2022-10-09T06:02:19.492Z,4.32
2022-10-09T06:07:22.653Z,4.60
2022-10-09T06:12:25.349Z,4.97
2022-10-09T06:17:28.103Z,4.97
2022-10-09T06:22:30.795Z,5.17
2022-10-09T06:27:34.001Z,4.80
2022-10-09T06:32:36.785Z,4.17
2022-10-09T06:37:39.553Z,4.07
2022-10-09T06:42:42.292Z,3.40
2022-10-09T06:47:52.632Z,4.37
2022-10-09T06:52:57.134Z,4.18
2022-10-09T06:58:00.719Z,3.53
2022-10-09T07:03:03.436Z,3.92
2022-10-09T07:08:06.534Z,4.93
2022-10-09T07:13:09.250Z,4.30
2022-10-09T07:18:12.023Z,4.43
2022-10-09T07:23:14.777Z,3.90
2022-10-09T07:28:17.621Z,3.33
2022-10-09T07:33:20.620Z,2.47
2022-10-09T07:38:24.772Z,2.80
2022-10-09T07:43:27.691Z,2.85
2022-10-09T07:48:30.862Z,3.00
2022-10-09T07:53:35.960Z,2.90
2022-10-09T07:58:38.937Z,3.08
2022-10-09T08:03:41.642Z,2.43
2022-10-09T08:08:45.362Z,2.92
2022-10-09T08:13:50.281Z,2.90
2022-10-09T08:18:58.670Z,2.97
2022-10-09T08:24:01.552Z,2.92
2022-10-09T08:29:05.842Z,2.53
2022-10-09T08:34:09.399Z,2.70
2022-10-09T08:39:12.353Z,3.10
2022-10-09T08:44:35.259Z,2.50
2022-10-09T08:50:09.318Z,2.60
2022-10-09T08:55:19.595Z,3.00
2022-10-09T09:00:27.743Z,2.63
2022-10-09T09:05:53.259Z,2.43
2022-10-09T09:11:11.529Z,2.42
2022-10-09T09:16:37.019Z,2.80
2022-10-09T09:21:51.859Z,3.33
2022-10-09T09:26:59.900Z,2.97
2022-10-09T09:32:03.068Z,2.70
2022-10-09T09:37:05.952Z,2.38
2022-10-09T09:42:14.601Z,2.40
2022-10-09T09:47:30.729Z,2.90
2022-10-09T09:52:40.039Z,2.75
2022-10-09T09:57:45.629Z,2.60
2022-10-09T10:02:49.342Z,2.03
2022-10-09T10:07:53.183Z,2.42
2022-10-09T10:12:59.514Z,1.93
2022-10-09T10:18:07.463Z,2.20
2022-10-09T10:23:49.482Z,2.50
2022-10-09T10:29:14.014Z,2.05
2022-10-09T10:34:40.819Z,2.22
2022-10-09T10:39:57.477Z,2.23
2022-10-09T10:45:38.732Z,1.98
2022-10-09T10:51:09.273Z,2.33
2022-10-09T10:56:24.683Z,2.72
2022-10-09T11:01:36.354Z,2.20
2022-10-09T11:06:53.143Z,2.57
2022-10-09T11:12:43.395Z,2.53
2022-10-09T11:18:05.976Z,2.43
2022-10-09T11:23:27.785Z,2.33
2022-10-09T11:28:55.889Z,1.95
2022-10-09T11:34:04.777Z,2.20
2022-10-09T11:39:13.789Z,2.40
2022-10-09T11:44:31.608Z,2.10
2022-10-09T11:49:58.117Z,1.80
2022-10-09T11:55:26.934Z,2.00
2022-10-09T12:00:33.845Z,1.80
2022-10-09T12:05:43.985Z,2.63
2022-10-09T12:10:54.538Z,2.40
2022-10-09T12:15:59.895Z,2.67
2022-10-09T12:21:07.839Z,2.80
2022-10-09T12:26:13.114Z,2.30
2022-10-09T12:31:22.401Z,2.08
2022-10-09T12:36:27.795Z,2.20
2022-10-09T12:41:34.583Z,2.05
2022-10-09T12:46:39.667Z,2.60
2022-10-09T12:51:52.493Z,2.27
2022-10-09T12:56:59.619Z,2.50
2022-10-09T13:02:03.229Z,2.60
2022-10-09T13:07:21.454Z,2.60
2022-10-09T13:12:27.562Z,2.42
2022-10-09T13:17:38.962Z,1.80
2022-10-09T13:22:42.346Z,2.13
2022-10-09T13:27:45.302Z,2.20
2022-10-09T13:32:48.200Z,2.17
2022-10-09T13:37:51.449Z,2.40
2022-10-09T13:42:57.641Z,2.23
2022-10-09T13:48:01.797Z,2.40
2022-10-09T13:53:04.715Z,2.50
2022-10-09T13:58:07.509Z,2.50
2022-10-09T14:03:10.459Z,2.40
2022-10-09T14:08:13.437Z,2.30
2022-10-09T14:13:16.376Z,2.10
2022-10-09T14:18:19.954Z,1.90
2022-10-09T14:23:22.852Z,1.80
2022-10-09T14:28:25.921Z,1.75
2022-10-09T14:33:28.715Z,1.80
2022-10-09T14:38:31.681Z,2.10
2022-10-09T14:43:34.671Z,2.07
2022-10-09T14:48:37.583Z,1.75
2022-10-09T14:53:40.373Z,1.50
2022-10-09T14:58:43.701Z,1.40
2022-10-09T15:03:48.587Z,1.52
2022-10-09T15:08:55.212Z,1.20
2022-10-09T15:13:59.575Z,1.48
2022-10-09T15:19:02.583Z,1.50
2022-10-09T15:24:06.290Z,1.40
2022-10-09T15:29:09.633Z,1.48
2022-10-09T15:34:18.505Z,1.50
2022-10-09T15:39:21.342Z,1.70
2022-10-09T15:44:24.275Z,1.60
2022-10-09T15:49:26.963Z,1.53
2022-10-09T15:54:30.343Z,1.60
2022-10-09T15:59:36.538Z,1.97
2022-10-09T16:04:40.155Z,1.70
2022-10-09T16:09:42.961Z,1.42
2022-10-09T16:14:45.796Z,1.80
2022-10-09T16:19:48.712Z,1.70
2022-10-09T16:24:51.611Z,2.00
2022-10-09T16:29:54.607Z,2.63
2022-10-09T16:34:57.466Z,2.42
2022-10-09T16:40:00.361Z,2.70
2022-10-09T16:45:03.886Z,2.90
2022-10-09T16:50:08.007Z,3.27
2022-10-09T16:55:11.601Z,2.42
2022-10-09T17:00:18.940Z,3.28
2022-10-09T17:05:22.095Z,4.07
2022-10-09T17:10:24.920Z,6.03
2022-10-09T17:15:27.819Z,5.60
2022-10-09T17:20:32.116Z,4.80
2022-10-09T17:25:40.544Z,4.78
2022-10-09T17:30:43.620Z,5.20
2022-10-09T17:35:46.558Z,4.32
2022-10-09T17:40:49.423Z,3.57
2022-10-09T17:45:52.617Z,3.88
2022-10-09T17:50:57.593Z,4.32
2022-10-09T17:56:04.094Z,5.23
2022-10-09T18:01:11.015Z,4.55
2022-10-09T18:06:19.874Z,5.03
2022-10-09T18:11:24.876Z,5.20
2022-10-09T18:16:35.972Z,4.65
2022-10-09T18:21:42.164Z,4.77
2022-10-09T18:26:46.035Z,4.72
2022-10-09T18:31:50.744Z,3.40
2022-10-09T18:36:54.900Z,4.13
2022-10-09T18:41:58.611Z,3.67
2022-10-09T18:47:01.638Z,3.60
2022-10-09T18:52:04.949Z,3.70
2022-10-09T18:57:08.333Z,4.03
2022-10-09T19:02:11.697Z,3.88
2022-10-09T19:07:14.640Z,3.75
2022-10-09T19:12:19.272Z,3.53
2022-10-09T19:17:22.155Z,3.00
2022-10-09T19:22:25.074Z,3.30
2022-10-09T19:27:28.189Z,3.20
2022-10-09T19:32:31.309Z,3.25
2022-10-09T19:37:34.061Z,3.50
2022-10-09T19:42:36.979Z,3.13
2022-10-09T19:47:40.249Z,3.60
2022-10-09T19:52:43.163Z,3.40
2022-10-09T19:57:55.651Z,3.88
2022-10-09T20:02:58.412Z,4.10
2022-10-09T20:08:01.439Z,3.55
2022-10-09T20:13:05.944Z,4.77
2022-10-09T20:18:08.835Z,4.30
2022-10-09T20:23:11.654Z,4.35
2022-10-09T20:28:15.594Z,3.57
2022-10-09T20:33:18.374Z,4.22
2022-10-09T20:38:25.559Z,3.63
2022-10-09T20:43:28.745Z,3.67
2022-10-09T20:48:31.434Z,3.72
2022-10-09T20:53:35.119Z,4.00
2022-10-09T20:58:38.076Z,3.67
2022-10-09T21:03:41.554Z,4.30
2022-10-09T21:08:44.385Z,3.42
2022-10-09T21:13:48.038Z,4.20
2022-10-09T21:18:55.889Z,2.57
2022-10-09T21:24:00.090Z,3.00
2022-10-09T21:29:04.808Z,2.43
2022-10-09T21:34:07.549Z,3.22
2022-10-09T21:39:10.901Z,2.85
2022-10-09T21:44:13.947Z,3.37
2022-10-09T21:49:25.125Z,3.67
2022-10-09T21:54:28.277Z,3.03
2022-10-09T21:59:31.008Z,3.08
2022-10-09T22:04:33.790Z,4.60
2022-10-09T22:09:37.128Z,2.60
2022-10-09T22:14:39.871Z,2.88
2022-10-09T22:19:43.149Z,2.80
2022-10-09T22:24:46.017Z,4.22
2022-10-09T22:29:48.696Z,3.58
2022-10-09T22:34:52.438Z,4.47
2022-10-09T22:39:55.094Z,4.60
2022-10-09T22:44:57.693Z,4.37
2022-10-09T22:50:00.389Z,3.60
2022-10-09T22:55:03.713Z,4.32
2022-10-09T23:00:06.963Z,3.73
2022-10-09T23:05:09.877Z,4.45
2022-10-09T23:10:12.557Z,3.63
2022-10-09T23:15:15.409Z,3.80
2022-10-09T23:20:18.208Z,3.80
2022-10-09T23:25:20.876Z,4.07
2022-10-09T23:30:23.669Z,3.97
2022-10-09T23:35:26.280Z,3.47
2022-10-09T23:40:28.863Z,3.60
2022-10-09T23:45:31.579Z,2.95
2022-10-09T23:50:34.309Z,2.40
2022-10-09T23:55:37.050Z,3.22
